Time;durP1;ratioP1;P1;durP2;ratioP2;P2;SDS_P1;SDS_P2;PMS_P1;PMS_P2;Temp;Humidity;BMP_temperature;BMP_pressure;BME280_temperature;BME280_humidity;BME280_pressure;Samples;Min_cycle;Max_cycle;Signal;HPM_P1;HPM_P2
2021/06/19 00:02:04;;;;;;;4.72;4.05;;;21.80;61.40;;;21.77;44.66;94926.75;4919941;29;20577;-82
2021/06/19 00:04:31;;;;;;;5.22;4.13;;;21.70;61.30;;;21.75;44.12;94929.66;4889715;29;20251;-81
2021/06/19 00:07:00;;;;;;;4.15;3.75;;;21.70;61.30;;;21.71;44.61;94925.91;4807088;29;20681;-83
2021/06/19 00:11:05;;;;;;;6.38;3.97;;;21.60;61.40;;;21.67;44.73;94930.97;5149740;27;20643;-82
2021/06/19 00:13:32;;;;;;;5.72;4.05;;;21.60;61.40;;;21.63;44.27;94929.09;5107813;27;20258;-81
2021/06/19 00:15:58;;;;;;;4.75;4.25;;;21.60;61.40;;;21.63;44.68;94937.09;5085744;28;20253;-81
2021/06/19 00:18:25;;;;;;;4.63;4.00;;;21.60;61.70;;;21.59;44.68;94934.97;5105857;27;20214;-81
2021/06/19 00:20:53;;;;;;;4.45;4.00;;;21.60;61.70;;;21.57;45.00;94945.09;5103440;28;20206;-81
2021/06/19 00:23:19;;;;;;;5.07;3.92;;;21.60;61.90;;;21.52;45.33;94939.72;5040192;28;20209;-80
2021/06/19 00:25:45;;;;;;;5.05;4.20;;;21.60;62.00;;;21.52;44.78;94937.03;4930805;28;20210;-82
2021/06/19 00:28:12;;;;;;;4.60;4.20;;;21.50;62.00;;;21.50;44.85;94941.81;4869304;29;20222;-81
2021/06/19 00:33:01;;;;;;;4.30;3.90;;;21.50;62.00;;;21.43;44.98;94933.25;5150156;27;20735;-81
2021/06/19 00:35:28;;;;;;;4.50;4.10;;;21.40;62.00;;;21.41;45.11;94944.19;5062852;28;20214;-81
2021/06/19 00:37:54;;;;;;;4.28;3.88;;;21.40;63.00;;;21.35;45.46;94936.41;5099387;28;20198;-81
2021/06/19 00:40:21;;;;;;;4.95;4.30;;;21.40;62.20;;;21.35;45.53;94933.72;5091685;28;20243;-81
2021/06/19 00:42:55;;;;;;;4.80;4.30;;;21.30;62.20;;;21.31;45.46;94935.31;5055726;28;20199;-81
2021/06/19 00:45:26;;;;;;;3.90;3.60;;;21.40;62.90;;;21.28;45.57;94933.97;4973749;28;20316;-81
2021/06/19 00:47:53;;;;;;;4.40;3.72;;;21.20;62.30;;;21.22;45.59;94935.81;4898884;28;20228;-81
2021/06/19 00:50:21;;;;;;;4.28;3.88;;;21.20;62.40;;;21.18;45.77;94932.06;4748320;29;20288;-81
2021/06/19 00:55:13;;;;;;;5.57;4.57;;;21.20;62.50;;;21.16;45.87;94926.19;5131374;27;20565;-81
2021/06/19 00:57:41;;;;;;;4.90;4.22;;;21.10;62.50;;;21.14;46.18;94925.66;5083669;28;20204;-81
2021/06/19 01:00:10;;;;;;;6.55;4.15;;;21.10;62.70;;;21.11;46.18;94923.50;5102666;28;20244;-80
2021/06/19 01:02:39;;;;;;;4.63;4.07;;;21.10;62.90;;;21.07;46.26;94917.06;5076350;28;20529;-80
2021/06/19 01:05:10;;;;;;;5.53;4.40;;;21.10;62.80;;;21.04;46.19;94915.69;5045877;28;20227;-81
2021/06/19 01:07:37;;;;;;;4.53;4.07;;;21.00;63.20;;;21.02;46.17;94912.50;5030734;28;20208;-81
2021/06/19 01:10:07;;;;;;;6.45;3.95;;;21.00;62.70;;;20.98;46.49;94908.72;4976301;28;20232;-80
2021/06/19 01:12:35;;;;;;;7.53;4.57;;;21.00;62.90;;;20.94;46.11;94908.44;4779579;29;20275;-80
2021/06/19 01:15:13;;;;;;;5.95;4.15;;;21.00;62.70;;;20.91;46.27;94908.97;5130831;27;20396;-81
2021/06/19 01:17:40;;;;;;;4.40;3.97;;;20.90;63.00;;;20.89;46.59;94911.09;5108310;28;20200;-81
2021/06/19 01:20:13;;;;;;;5.75;4.63;;;20.90;63.10;;;20.84;46.68;94900.41;5112398;27;20242;-81
2021/06/19 01:22:45;;;;;;;4.32;3.92;;;20.80;63.20;;;20.81;46.94;94897.44;5070919;28;20213;-81
2021/06/19 01:25:19;;;;;;;6.75;4.15;;;20.80;63.30;;;20.76;46.75;94904.34;5028859;28;20698;-81
2021/06/19 01:27:48;;;;;;;6.05;4.18;;;20.80;63.80;;;20.73;46.75;94906.72;4963436;28;20711;-81
2021/06/19 01:30:17;;;;;;;5.78;4.28;;;20.70;63.40;;;20.68;46.90;94901.31;4924998;28;20227;-81
2021/06/19 01:32:44;;;;;;;6.07;4.22;;;20.80;63.40;;;20.63;46.96;94897.56;4638608;30;20573;-81
2021/06/19 01:37:07;;;;;;;4.60;4.10;;;20.70;63.40;;;20.54;46.65;94895.63;5129997;27;20563;-81
2021/06/19 01:39:34;;;;;;;5.60;4.00;;;20.60;63.20;;;20.50;47.27;94897.19;5105389;28;20213;-81
2021/06/19 01:42:01;;;;;;;6.13;4.13;;;20.60;63.50;;;20.47;47.14;94893.97;5082700;28;20690;-81
2021/06/19 01:44:27;;;;;;;5.20;4.70;;;20.50;63.80;;;20.43;47.14;94878.75;5065285;28;20234;-80
2021/06/19 01:46:54;;;;;;;5.78;4.55;;;20.50;63.90;;;20.38;47.39;94881.38;5065857;28;20237;-81
2021/06/19 01:49:20;;;;;;;4.68;4.20;;;20.40;63.80;;;20.36;47.63;94876.31;5016334;28;20237;-81
2021/06/19 01:51:46;;;;;;;7.32;4.50;;;20.40;63.80;;;20.33;47.70;94878.69;4960750;28;20560;-81
2021/06/19 01:54:14;;;;;;;6.18;5.00;;;20.40;63.80;;;20.28;47.71;94882.09;4932040;28;20224;-80
2021/06/19 01:58:51;;;;;;;4.78;4.18;;;20.30;63.70;;;20.22;47.58;94889.22;5143126;27;20571;-81
2021/06/19 02:01:18;;;;;;;4.57;4.18;;;20.30;63.70;;;20.21;47.63;94886.81;5102802;28;20198;-81
2021/06/19 02:03:46;;;;;;;5.10;4.60;;;20.20;63.70;;;20.21;47.52;94900.16;5085318;28;20226;-82
2021/06/19 02:06:13;;;;;;;6.60;4.75;;;20.20;63.60;;;20.19;48.17;94907.56;5047699;28;20480;-81
2021/06/19 02:08:42;;;;;;;7.25;4.85;;;20.20;63.60;;;20.18;48.05;94908.63;5009837;28;20332;-80
2021/06/19 02:11:09;;;;;;;5.00;4.50;;;20.20;65.00;;;20.17;47.77;94915.81;4969837;28;20196;-82
2021/06/19 02:13:36;;;;;;;5.97;4.47;;;20.10;63.90;;;20.15;48.14;94915.25;4872750;29;20710;-81
2021/06/19 02:16:04;;;;;;;7.25;4.85;;;20.10;63.90;;;20.13;48.51;94918.19;4726401;29;20224;-81
2021/06/19 02:21:02;;;;;;;5.00;4.53;;;20.10;64.10;;;20.09;48.47;94917.09;5150280;27;20379;-82
2021/06/19 02:23:29;;;;;;;4.85;4.40;;;20.10;64.40;;;20.06;48.41;94922.91;5111282;27;20230;-81
2021/06/19 02:25:55;;;;;;;5.13;4.57;;;20.10;64.50;;;20.07;48.56;94935.16;5127608;27;20200;-81
2021/06/19 02:28:27;;;;;;;6.80;4.68;;;20.10;64.60;;;20.05;48.99;94926.63;5122825;27;20269;-81
2021/06/19 02:30:58;;;;;;;5.10;4.50;;;20.00;65.00;;;20.04;49.11;94932.19;5084092;28;20652;-80
2021/06/19 02:33:25;;;;;;;4.90;4.50;;;20.00;65.00;;;20.03;48.97;94931.41;5004229;28;20320;-82
2021/06/19 02:35:52;;;;;;;5.68;4.55;;;20.00;64.60;;;19.98;48.77;94921.50;4957767;28;20202;-81
2021/06/19 02:38:21;;;;;;;5.75;4.40;;;20.00;64.80;;;19.98;48.86;94923.34;4807444;29;20227;-80
2021/06/19 02:42:59;;;;;;;6.30;4.07;;;20.00;64.90;;;19.91;48.43;94922.75;5150213;27;20643;-81
2021/06/19 02:45:26;;;;;;;7.85;4.75;;;20.00;64.40;;;19.88;48.86;94924.03;5108065;27;20228;-81
2021/06/19 02:47:56;;;;;;;4.60;4.15;;;20.00;64.70;;;19.85;49.27;94924.56;5052411;28;20631;-80
2021/06/19 02:50:26;;;;;;;8.50;4.30;;;19.90;64.80;;;19.84;49.19;94934.38;5020802;28;20726;-81
2021/06/19 02:52:55;;;;;;;5.10;4.55;;;20.00;65.10;;;19.84;48.98;94936.25;4952763;28;20230;-81
2021/06/19 02:55:25;;;;;;;5.50;4.80;;;19.80;65.10;;;19.86;49.34;94938.66;4952827;28;20222;-81
2021/06/19 02:57:52;;;;;;;5.00;4.50;;;19.90;65.30;;;19.88;48.96;94933.91;4914976;28;20212;-81
2021/06/19 03:00:21;;;;;;;5.20;4.70;;;19.80;65.10;;;19.90;49.53;94934.47;4720601;29;20609;-81
2021/06/19 03:03:00;;;;;;;5.65;4.57;;;19.80;65.40;;;19.90;49.46;94929.16;5148136;27;20379;-80
2021/06/19 03:05:29;;;;;;;6.45;4.25;;;19.80;65.10;;;19.92;49.60;94932.34;5080797;28;20228;-80
2021/06/19 03:07:56;;;;;;;5.63;4.80;;;19.80;65.30;;;19.91;49.31;94928.06;5100562;28;20220;-81
2021/06/19 03:10:32;;;;;;;5.78;4.93;;;19.90;65.30;;;19.90;49.62;94921.94;5043992;28;20230;-82
2021/06/19 03:12:59;;;;;;;6.38;4.78;;;19.80;65.80;;;19.89;49.26;94930.97;4999820;28;20567;-81
2021/06/19 03:15:27;;;;;;;5.28;4.65;;;19.80;66.20;;;19.89;49.39;94940.84;4954453;28;20255;-81
2021/06/19 03:17:53;;;;;;;6.18;4.75;;;19.80;65.30;;;19.88;49.63;94940.00;4950557;28;20670;-81
2021/06/19 03:20:21;;;;;;;7.10;4.47;;;19.80;65.40;;;19.88;49.33;94944.53;4898032;28;20220;-81
2021/06/19 03:24:42;;;;;;;6.40;4.47;;;19.80;65.30;;;19.87;49.29;94942.94;5132643;27;20583;-81
2021/06/19 03:27:12;;;;;;;7.38;4.93;;;19.80;65.40;;;19.86;49.36;94938.66;5069516;28;20472;-81
2021/06/19 03:29:38;;;;;;;4.97;4.47;;;19.80;65.60;;;19.91;49.91;94949.34;5084703;28;20229;-81
2021/06/19 03:32:06;;;;;;;5.13;4.63;;;19.80;65.60;;;19.92;49.55;94942.97;5047167;28;20207;-81
2021/06/19 03:34:33;;;;;;;5.30;4.80;;;19.80;65.60;;;19.93;49.67;94941.94;5044632;28;20263;-81
2021/06/19 03:37:01;;;;;;;6.18;4.72;;;19.80;65.70;;;19.95;49.70;94935.31;4970945;28;20287;-81
2021/06/19 03:39:29;;;;;;;4.95;4.45;;;19.80;65.60;;;19.96;49.65;94939.56;4890606;28;20228;-80
2021/06/19 03:41:56;;;;;;;6.30;4.72;;;19.80;66.00;;;20.01;49.66;94949.47;4742616;29;20227;-80
2021/06/19 03:46:07;;;;;;;6.25;4.60;;;19.90;66.10;;;20.03;49.82;94954.56;5149526;27;20985;-80
2021/06/19 03:48:34;;;;;;;5.13;4.70;;;19.90;65.90;;;20.06;49.67;94954.06;5088216;27;20224;-80
2021/06/19 03:51:01;;;;;;;5.10;4.60;;;19.90;66.00;;;20.11;50.22;94959.44;5089739;28;20225;-81
2021/06/19 03:53:28;;;;;;;5.25;4.50;;;20.00;66.10;;;20.15;49.64;94953.38;5098818;28;20222;-81
2021/06/19 03:55:55;;;;;;;7.38;4.60;;;19.90;66.20;;;20.20;50.02;94955.28;5060565;28;20207;-81
2021/06/19 03:58:21;;;;;;;5.38;4.85;;;20.00;66.30;;;20.27;50.22;94966.50;4984824;28;20237;-82
2021/06/19 04:00:48;;;;;;;5.75;4.93;;;20.00;66.30;;;20.34;50.28;94968.97;4963612;28;20287;-82
2021/06/19 04:03:15;;;;;;;5.93;4.68;;;20.10;66.40;;;20.42;50.01;94962.38;4897004;28;20213;-82
2021/06/19 04:07:03;;;;;;;5.03;4.53;;;20.20;66.70;;;20.51;49.95;94960.06;5150673;27;20630;-83
2021/06/19 04:09:30;;;;;;;5.43;4.15;;;20.20;66.40;;;20.57;50.20;94961.75;5116022;28;20689;-83
2021/06/19 04:11:57;;;;;;;5.35;4.72;;;20.30;66.50;;;20.64;50.28;94963.13;5072474;28;20224;-82
2021/06/19 04:14:23;;;;;;;6.60;4.82;;;20.40;66.50;;;20.72;49.98;94964.53;5049626;28;20287;-81
2021/06/19 04:16:50;;;;;;;5.03;4.53;;;20.40;66.70;;;20.77;50.00;94964.56;4987241;28;20208;-82
2021/06/19 04:19:17;;;;;;;5.72;5.22;;;20.40;66.80;;;20.87;50.13;94966.53;4992584;28;20715;-82
2021/06/19 04:21:44;;;;;;;5.60;4.95;;;20.50;66.80;;;20.93;50.41;94976.19;4972050;28;20289;-82
2021/06/19 04:24:11;;;;;;;5.30;4.80;;;20.60;66.80;;;20.97;50.28;94960.47;4886334;28;20239;-82
2021/06/19 04:28:31;;;;;;;5.63;4.80;;;20.60;66.80;;;21.13;49.84;94969.38;5145945;27;20633;-82
2021/06/19 04:31:00;;;;;;;5.30;4.80;;;20.80;66.70;;;21.21;50.16;94976.88;5107489;28;20234;-82
2021/06/19 04:33:34;;;;;;;5.13;4.57;;;20.90;66.90;;;21.28;50.21;94974.00;5086769;28;20748;-82
2021/06/19 04:36:02;;;;;;;5.78;5.03;;;20.90;66.90;;;21.35;50.06;94968.41;5045684;28;20235;-82
2021/06/19 04:38:29;;;;;;;5.35;4.85;;;21.00;66.90;;;21.46;50.39;94967.44;5019895;28;20219;-83
2021/06/19 04:41:03;;;;;;;6.45;5.03;;;21.10;67.20;;;21.54;50.10;94958.91;4968254;28;20212;-83
2021/06/19 04:43:51;;;;;;;5.60;5.10;;;21.10;66.90;;;21.61;49.95;94958.72;4886753;29;20286;-82
2021/06/19 04:46:18;;;;;;;5.47;4.97;;;21.20;67.20;;;21.69;50.34;94957.41;4520911;30;20240;-83
2021/06/19 04:49:58;;;;;;;6.03;4.78;;;21.30;67.10;;;21.81;50.27;94962.53;5134005;27;20576;-83
2021/06/19 04:52:32;;;;;;;7.15;5.22;;;21.40;67.20;;;21.87;50.72;94962.31;5067853;28;20233;-83
2021/06/19 04:54:59;;;;;;;6.03;5.40;;;21.50;67.50;;;21.94;50.13;94962.03;5051980;28;20219;-83
2021/06/19 04:57:26;;;;;;;6.18;5.30;;;21.50;67.30;;;22.02;50.49;94968.72;5068562;28;20270;-83
2021/06/19 04:59:53;;;;;;;5.65;5.10;;;21.60;67.10;;;22.09;50.43;94961.28;5054505;28;20800;-83
2021/06/19 05:02:20;;;;;;;7.90;5.43;;;21.70;67.10;;;22.16;50.43;94966.38;5022521;28;20204;-83
2021/06/19 05:04:46;;;;;;;5.53;5.03;;;21.70;67.10;;;22.22;50.09;94963.44;4932328;28;20236;-83
2021/06/19 05:07:13;;;;;;;5.75;4.90;;;21.70;66.90;;;22.31;49.80;94961.06;4793087;29;20278;-84
2021/06/19 05:11:39;;;;;;;5.43;4.93;;;21.80;66.90;;;22.41;49.57;94967.53;5143273;27;20524;-83
2021/06/19 05:14:06;;;;;;;6.30;5.65;;;22.00;66.70;;;22.47;49.70;94967.28;5080133;28;20225;-83
2021/06/19 05:16:32;;;;;;;5.38;4.90;;;22.00;66.80;;;22.55;49.60;94968.59;5075989;28;20196;-80
2021/06/19 05:18:59;;;;;;;5.88;5.38;;;22.10;66.80;;;22.59;49.86;94963.53;5043600;28;20234;-80
2021/06/19 05:21:25;;;;;;;5.57;5.00;;;22.20;66.70;;;22.69;49.35;94967.00;5044383;28;20232;-80
2021/06/19 05:23:52;;;;;;;8.50;5.35;;;22.20;66.70;;;22.77;49.65;94965.66;5008705;28;20223;-80
2021/06/19 05:26:19;;;;;;;5.80;5.10;;;22.30;66.70;;;22.83;49.54;94961.94;4932632;28;20928;-81
2021/06/19 05:28:46;;;;;;;7.38;4.97;;;22.40;66.60;;;22.89;49.35;94957.38;4793071;29;20241;-80
2021/06/19 05:33:49;;;;;;;5.63;5.13;;;22.40;66.50;;;23.02;49.49;94964.88;5141201;27;20546;-81
2021/06/19 05:36:15;;;;;;;5.93;5.40;;;22.50;66.30;;;23.09;49.29;94969.94;5087490;28;20212;-81
2021/06/19 05:38:42;;;;;;;5.68;5.18;;;22.60;67.10;;;23.16;49.28;94966.97;5116947;28;20315;-81
2021/06/19 05:41:09;;;;;;;8.90;5.75;;;22.70;66.30;;;23.22;49.21;94967.78;5068797;28;20200;-81
2021/06/19 05:43:35;;;;;;;7.38;5.75;;;22.70;66.10;;;23.26;49.22;94971.53;5050033;28;20328;-81
2021/06/19 05:46:02;;;;;;;6.35;5.75;;;22.80;66.20;;;23.30;49.21;94969.94;4990211;28;20216;-81
2021/06/19 05:48:30;;;;;;;6.28;5.68;;;22.90;66.30;;;23.39;48.72;94978.19;4921406;28;20224;-81
2021/06/19 05:50:59;;;;;;;6.32;5.28;;;22.90;66.30;;;23.45;49.42;94975.25;4767251;29;20275;-81
2021/06/19 05:55:45;;;;;;;6.47;5.13;;;23.00;66.30;;;23.59;48.95;94975.47;5137190;27;20387;-82
2021/06/19 05:58:12;;;;;;;5.75;5.20;;;23.10;66.40;;;23.67;48.70;94974.13;5101675;28;20208;-81
2021/06/19 06:00:39;;;;;;;5.75;5.07;;;23.10;66.20;;;23.76;48.84;94977.03;5070704;28;20601;-82
2021/06/19 06:03:05;;;;;;;6.05;5.45;;;23.20;66.00;;;23.82;48.94;94971.38;5082822;28;20698;-80
2021/06/19 06:05:32;;;;;;;8.75;5.55;;;23.30;66.40;;;23.89;49.18;94970.25;5051440;28;20210;-81
2021/06/19 06:08:00;;;;;;;6.75;5.53;;;23.30;66.10;;;23.97;48.80;94972.41;4989202;28;20275;-81
2021/06/19 06:10:28;;;;;;;5.95;5.45;;;23.40;66.20;;;24.05;49.01;94973.72;4998390;28;20202;-81
2021/06/19 06:12:57;;;;;;;6.78;6.07;;;23.50;66.30;;;24.08;48.65;94976.66;4875162;28;20216;-81
2021/06/19 06:17:11;;;;;;;5.65;5.13;;;23.60;66.30;;;24.24;48.77;94979.25;5128390;27;20660;-81
2021/06/19 06:19:37;;;;;;;6.60;5.53;;;23.70;66.40;;;24.32;48.79;94983.22;5087232;28;20230;-81
2021/06/19 06:22:04;;;;;;;6.93;6.22;;;23.80;66.40;;;24.41;48.78;94981.56;5073954;28;20296;-81
2021/06/19 06:24:32;;;;;;;7.50;5.40;;;23.80;66.40;;;24.51;48.86;94983.38;5044208;28;20223;-81
2021/06/19 06:27:00;;;;;;;6.13;5.63;;;23.90;66.50;;;24.58;48.82;94981.16;5037956;28;20207;-81
2021/06/19 06:29:26;;;;;;;6.65;5.95;;;24.00;66.70;;;24.67;48.65;94984.09;4915402;29;20265;-81
2021/06/19 06:31:53;;;;;;;6.38;5.78;;;24.10;66.80;;;24.76;48.35;94977.84;4885361;28;20303;-81
2021/06/19 06:34:23;;;;;;;6.18;5.60;;;24.10;66.70;;;24.86;48.34;94982.31;4802932;29;20251;-81
2021/06/19 06:39:22;;;;;;;6.88;6.20;;;24.20;66.80;;;25.07;48.04;94976.78;5138652;27;20657;-82
2021/06/19 06:41:49;;;;;;;6.75;6.13;;;24.40;66.70;;;25.15;48.33;94984.22;5091145;28;20208;-81
2021/06/19 06:44:15;;;;;;;7.05;5.90;;;24.50;66.70;;;25.22;48.27;94973.97;5114796;28;20244;-81
2021/06/19 06:46:43;;;;;;;8.13;5.78;;;24.60;66.70;;;25.29;48.13;94979.00;5074140;28;20225;-81
2021/06/19 06:49:10;;;;;;;7.38;5.85;;;24.60;66.50;;;25.38;48.12;94974.66;5056841;28;20326;-81
2021/06/19 06:51:37;;;;;;;5.97;5.35;;;24.70;66.20;;;25.48;48.00;94989.84;5009101;28;20218;-82
2021/06/19 06:54:06;;;;;;;5.47;5.03;;;24.80;66.20;;;25.55;47.78;94984.16;4986074;28;20311;-82
2021/06/19 06:56:32;;;;;;;7.10;5.47;;;24.90;66.30;;;25.63;48.35;94982.72;4813927;29;20231;-81
2021/06/19 07:01:34;;;;;;;6.30;5.70;;;25.00;66.40;;;25.84;47.61;94985.97;5150437;27;20957;-82
2021/06/19 07:04:01;;;;;;;6.03;5.43;;;25.10;66.30;;;25.92;48.02;94992.59;5111140;28;20217;-81
2021/06/19 07:06:27;;;;;;;7.78;5.80;;;25.20;66.20;;;25.99;47.49;94990.38;5074875;28;20698;-82
2021/06/19 07:08:54;;;;;;;7.47;5.70;;;25.30;65.90;;;26.08;47.68;94985.19;5068245;28;20239;-81
2021/06/19 07:11:21;;;;;;;6.38;5.60;;;25.40;66.00;;;26.16;47.60;94990.69;5029953;28;20542;-81
2021/06/19 07:13:47;;;;;;;8.13;6.75;;;25.40;65.70;;;26.24;47.32;94996.53;4975604;28;20680;-81
2021/06/19 07:16:14;;;;;;;6.30;5.70;;;25.50;65.90;;;26.32;47.22;94991.28;4942375;28;20313;-81
2021/06/19 07:18:42;;;;;;;6.07;5.28;;;25.60;65.70;;;26.41;47.47;94988.75;4810089;29;20254;-82
2021/06/19 07:23:15;;;;;;;5.93;5.10;;;25.70;65.60;;;26.55;47.03;94991.53;5147429;27;21157;-82
2021/06/19 07:25:42;;;;;;;6.07;5.47;;;25.80;65.60;;;26.65;46.92;94993.25;5109254;28;20209;-82
2021/06/19 07:28:08;;;;;;;9.77;6.03;;;25.90;65.50;;;26.74;47.13;94998.78;5090339;28;20229;-82
2021/06/19 07:30:35;;;;;;;6.60;5.43;;;26.00;65.50;;;26.83;46.68;94995.16;5074008;28;20664;-81
2021/06/19 07:33:02;;;;;;;6.60;5.93;;;26.10;65.50;;;26.91;46.95;94993.69;5056412;28;20288;-81
2021/06/19 07:35:29;;;;;;;6.47;5.80;;;26.10;65.30;;;27.01;47.02;95000.78;4982493;28;20217;-81
2021/06/19 07:37:57;;;;;;;6.20;5.60;;;26.20;65.30;;;27.10;46.68;95007.09;4939711;28;20230;-82
2021/06/19 07:40:23;;;;;;;6.47;5.88;;;26.30;65.20;;;27.20;47.22;95005.34;4893693;29;20228;-81
2021/06/19 07:45:27;;;;;;;6.28;5.68;;;26.40;65.10;;;27.35;46.29;95013.16;5129545;27;20561;-82
2021/06/19 07:47:54;;;;;;;6.57;5.97;;;26.60;64.90;;;27.45;46.26;95014.88;5067313;28;20200;-82
2021/06/19 07:50:21;;;;;;;6.60;6.00;;;26.60;64.80;;;27.52;46.32;95014.50;5069624;28;20718;-82
2021/06/19 07:52:48;;;;;;;8.02;5.80;;;26.70;65.00;;;27.58;46.35;94997.16;5088101;28;20235;-81
2021/06/19 07:55:15;;;;;;;6.45;5.95;;;26.80;65.00;;;27.69;46.53;95003.16;5076617;28;20318;-82
2021/06/19 07:57:41;;;;;;;5.95;5.35;;;26.90;64.80;;;27.76;46.14;95000.88;5028849;28;20219;-82
2021/06/19 08:00:10;;;;;;;8.00;5.65;;;26.90;64.80;;;27.86;45.94;94999.88;4892461;28;20262;-81
2021/06/19 08:02:38;;;;;;;5.75;5.25;;;27.10;64.60;;;27.94;45.56;94999.97;4774852;29;20757;-82
2021/06/19 08:06:39;;;;;;;6.15;5.57;;;27.10;64.40;;;28.06;45.77;94999.50;5140235;27;20548;-81
2021/06/19 08:09:07;;;;;;;5.88;5.15;;;27.30;64.30;;;28.11;45.29;94985.88;5066895;28;20772;-82
2021/06/19 08:11:33;;;;;;;6.07;5.50;;;27.30;65.00;;;28.19;45.36;94997.06;5078608;28;20693;-81
2021/06/19 08:14:00;;;;;;;6.50;5.30;;;27.40;64.10;;;28.24;45.57;94991.56;5044825;28;20233;-82
2021/06/19 08:16:27;;;;;;;6.63;5.78;;;27.50;64.00;;;28.31;45.77;94993.81;5073684;28;20586;-82
2021/06/19 08:18:54;;;;;;;6.25;5.03;;;27.40;63.90;;;28.41;45.77;94997.09;5025292;28;20220;-82
2021/06/19 08:21:21;;;;;;;6.80;5.63;;;27.60;64.10;;;28.50;44.77;94989.09;4924749;28;20558;-82
2021/06/19 08:23:48;;;;;;;5.68;5.18;;;27.60;63.90;;;28.59;45.34;94983.78;4789910;29;20307;-82
2021/06/19 08:27:50;;;;;;;6.03;5.43;;;27.70;64.00;;;28.72;45.35;94984.84;5149437;27;20548;-82
2021/06/19 08:30:17;;;;;;;6.22;5.38;;;27.90;63.90;;;28.82;44.98;94981.13;5111736;27;20677;-81
2021/06/19 08:32:44;;;;;;;5.70;5.15;;;28.00;63.80;;;28.90;45.32;94977.69;5116917;28;20204;-82
2021/06/19 08:35:11;;;;;;;6.03;5.40;;;28.00;63.60;;;29.01;44.79;94983.63;5056269;28;20221;-82
2021/06/19 08:37:38;;;;;;;8.45;5.53;;;28.10;63.40;;;29.06;44.45;94991.59;5015525;28;20247;-83
2021/06/19 08:40:07;;;;;;;5.90;5.30;;;28.20;63.30;;;29.17;44.52;94984.03;4898008;28;20281;-82
2021/06/19 08:42:34;;;;;;;6.05;5.47;;;28.30;63.00;;;29.20;44.43;94989.63;4776870;29;20309;-81
2021/06/19 08:45:03;;;;;;;5.88;5.20;;;28.40;63.30;;;29.33;43.92;94987.19;4622573;30;20797;-81
2021/06/19 08:49:47;;;;;;;5.93;5.30;;;28.40;63.10;;;29.47;44.01;94982.50;5136391;27;20671;-82
2021/06/19 08:52:16;;;;;;;6.22;5.68;;;28.60;63.10;;;29.58;44.03;94987.59;5085410;28;20216;-82
2021/06/19 08:54:42;;;;;;;5.93;5.43;;;28.70;62.60;;;29.63;44.00;94990.19;5089455;28;20224;-81
2021/06/19 08:57:13;;;;;;;5.78;5.18;;;28.70;62.60;;;29.70;43.73;94982.44;5035318;28;20221;-83
2021/06/19 08:59:48;;;;;;;6.25;5.72;;;28.70;62.20;;;29.77;43.14;94981.97;5028037;28;20388;-82
2021/06/19 09:02:16;;;;;;;6.63;5.60;;;28.90;61.80;;;29.82;43.51;94979.94;4977832;28;20216;-82
2021/06/19 09:04:59;;;;;;;6.18;5.57;;;28.90;62.40;;;29.90;43.56;94981.09;4875730;29;20299;-82
2021/06/19 09:10:18;;;;;;;6.32;5.70;;;29.00;62.40;;;30.13;43.31;94983.69;5133320;27;20657;-82
2021/06/19 09:12:57;;;;;;;6.63;5.78;;;29.20;62.20;;;30.22;43.21;94981.00;5071864;28;20784;-82
2021/06/19 09:15:25;;;;;;;6.28;5.43;;;29.30;62.20;;;30.31;42.53;94979.91;5068367;28;20239;-82
2021/06/19 09:18:13;;;;;;;6.40;5.80;;;29.40;61.80;;;30.35;42.29;94972.72;5000323;28;20229;-82
2021/06/19 09:20:54;;;;;;;6.97;5.50;;;29.50;61.80;;;30.46;41.92;94975.94;4944933;28;20219;-82
2021/06/19 09:23:39;;;;;;;6.15;5.55;;;29.50;61.40;;;30.52;42.31;94983.91;4982085;28;20238;-81
2021/06/19 09:26:21;;;;;;;6.63;5.20;;;29.60;61.10;;;30.58;42.59;94985.34;4910851;28;20309;-83
2021/06/19 09:31:53;;;;;;;5.70;5.07;;;29.70;61.40;;;30.74;41.42;94980.28;5130137;27;20314;-82
2021/06/19 09:34:26;;;;;;;6.10;5.43;;;29.90;61.30;;;30.86;42.41;94985.03;5023494;28;20243;-81
2021/06/19 09:37:07;;;;;;;6.10;5.50;;;29.90;61.10;;;30.95;41.85;94980.41;5029382;28;20201;-83
2021/06/19 09:39:35;;;;;;;9.27;5.90;;;30.00;60.80;;;31.03;40.96;94979.59;5011761;28;20702;-81
2021/06/19 09:42:06;;;;;;;7.63;5.70;;;30.10;60.60;;;31.11;40.85;94983.44;4961830;28;20249;-82
2021/06/19 09:44:48;;;;;;;7.72;4.90;;;30.10;60.10;;;31.18;39.98;94985.66;4894292;29;20266;-82
2021/06/19 09:47:17;;;;;;;5.45;4.95;;;30.30;59.50;;;31.22;39.85;94984.69;4756251;29;20235;-81
2021/06/19 09:50:47;;;;;;;5.95;5.45;;;30.30;59.10;;;31.23;40.74;94980.84;5145645;27;20907;-81
2021/06/19 09:53:14;;;;;;;6.00;5.18;;;30.30;59.10;;;31.33;40.44;94981.63;5089163;28;20206;-81
2021/06/19 09:56:05;;;;;;;5.70;5.20;;;30.30;59.40;;;31.39;39.89;94983.84;5043375;28;20225;-82
2021/06/19 09:58:53;;;;;;;5.18;4.75;;;30.50;60.70;;;31.50;39.49;94978.09;5021867;28;20233;-81
2021/06/19 10:01:39;;;;;;;5.25;4.85;;;30.60;58.10;;;31.62;39.04;94976.25;4892222;28;20221;-82
2021/06/19 10:04:08;;;;;;;5.03;4.60;;;30.60;58.20;;;31.70;38.70;94971.97;4864771;29;20341;-81
2021/06/19 10:06:36;;;;;;;4.53;4.13;;;30.70;57.40;;;31.81;38.72;94974.31;4791735;29;20224;-81
2021/06/19 10:11:14;;;;;;;4.57;4.18;;;30.70;57.20;;;31.93;38.41;94972.50;5150382;27;20647;-81
2021/06/19 10:13:45;;;;;;;4.85;4.40;;;30.90;56.50;;;32.05;37.63;94973.69;5106172;28;20301;-81
2021/06/19 10:16:13;;;;;;;4.43;4.03;;;30.90;55.70;;;32.15;37.31;94973.31;5084819;28;20231;-81
2021/06/19 10:18:42;;;;;;;5.30;4.80;;;31.10;56.40;;;32.26;37.21;94968.31;5050893;28;20773;-81
2021/06/19 10:21:11;;;;;;;4.88;4.47;;;31.20;56.00;;;32.35;37.25;94973.72;5047169;28;20212;-81
2021/06/19 10:23:39;;;;;;;5.35;4.85;;;31.30;56.40;;;32.41;37.58;94962.31;4987424;28;20317;-81
2021/06/19 10:26:07;;;;;;;5.50;5.00;;;31.40;56.10;;;32.51;37.87;94971.19;4945874;28;20212;-80
2021/06/19 10:28:45;;;;;;;4.72;4.32;;;31.50;56.00;;;32.59;37.47;94969.53;4853249;29;20259;-81
2021/06/19 10:33:47;;;;;;;5.10;4.60;;;31.50;56.00;;;32.82;37.06;94964.56;5136575;27;20996;-82
2021/06/19 10:36:16;;;;;;;5.05;4.65;;;31.70;55.40;;;32.92;36.44;94961.44;5107933;28;20559;-81
2021/06/19 10:38:53;;;;;;;4.93;4.50;;;31.80;55.20;;;33.00;36.75;94959.78;5092941;28;20240;-81
2021/06/19 10:41:23;;;;;;;4.82;4.43;;;31.90;55.00;;;33.08;36.70;94958.91;5082639;28;20206;-81
2021/06/19 10:43:51;;;;;;;5.38;4.88;;;32.00;55.20;;;33.15;36.16;94959.13;5021106;28;20228;-82
2021/06/19 10:46:35;;;;;;;5.28;4.78;;;32.10;54.70;;;33.21;36.05;94959.72;5021976;28;20205;-82
2021/06/19 10:49:20;;;;;;;5.25;4.78;;;32.20;54.80;;;33.26;36.17;94950.56;4848496;29;20245;-81
2021/06/19 10:55:42;;;;;;;6.78;4.72;;;32.30;55.30;;;33.43;36.70;94936.78;5134247;27;20559;-81
2021/06/19 10:58:30;;;;;;;4.80;4.35;;;32.40;55.00;;;33.52;35.73;94939.38;5084371;28;20244;-81
2021/06/19 11:00:58;;;;;;;5.35;4.85;;;32.50;54.80;;;33.63;36.03;94943.25;5044755;28;20212;-80
2021/06/19 11:03:47;;;;;;;5.28;4.88;;;32.60;54.00;;;33.72;35.75;94937.72;5007260;28;20600;-81
2021/06/19 11:06:19;;;;;;;5.20;4.80;;;32.60;53.90;;;33.80;35.29;94934.09;4980230;28;20199;-81
2021/06/19 11:09:05;;;;;;;5.20;4.80;;;32.70;53.40;;;33.89;35.14;94925.84;4911963;28;20252;-80
2021/06/19 11:11:54;;;;;;;5.57;5.07;;;32.80;54.00;;;33.96;34.94;94917.09;4806114;29;20561;-81
2021/06/19 11:16:57;;;;;;;5.80;4.60;;;32.90;53.80;;;34.05;35.43;94914.25;5150265;27;20636;-82
2021/06/19 11:19:36;;;;;;;5.93;5.32;;;33.00;52.70;;;34.05;34.70;94917.75;5090839;28;20234;-81
2021/06/19 11:22:26;;;;;;;12.77;4.95;;;33.10;53.10;;;34.06;34.62;94905.75;5066772;28;20265;-82
2021/06/19 11:25:31;;;;;;;5.85;5.30;;;33.10;53.20;;;34.09;34.71;94896.88;5019918;28;20720;-81
2021/06/19 11:28:02;;;;;;;6.18;5.20;;;33.20;53.10;;;34.18;34.45;94885.06;4973661;28;20218;-81
2021/06/19 11:30:38;;;;;;;5.85;5.32;;;33.20;52.30;;;34.28;34.67;94882.66;4932667;28;20714;-80
2021/06/19 11:33:20;;;;;;;5.50;5.00;;;33.30;52.50;;;34.40;34.68;94878.31;4842779;29;20221;-80
2021/06/19 11:39:01;;;;;;;6.03;5.15;;;33.40;52.80;;;34.69;34.47;94890.03;5142727;27;20581;-81